Time,TemperatureF,DewpointF,PressureIn,WindDirection,WindDirectionDegrees,WindSpeedMPH,WindSpeedGustMPH,Humidity,HourlyPrecipIn,Conditions,Clouds,dailyrainin,SoftwareType,DateUTC
2013-06-05 00:14:00,60.4,48.6,29.94,NW,315,5.3,-999.0,65,-99.99,,,0.00,Acu-Link.com,2013-06-05 05:14:00,
2013-06-05 00:29:00,59.7,48.3,29.94,West,270,6.8,-999.0,66,-99.99,,,0.00,Acu-Link.com,2013-06-05 05:29:00,
2013-06-05 00:45:00,58.8,48.3,29.94,West,270,4.2,-999.0,68,-99.99,,,0.00,Acu-Link.com,2013-06-05 05:45:00,
2013-06-05 01:00:00,58.1,48.0,29.94,NW,315,5.3,-999.0,69,-99.99,,,0.00,Acu-Link.com,2013-06-05 06:00:00,
2013-06-05 01:15:00,57.6,47.5,29.94,West,270,4.7,-999.0,69,-99.99,,,0.00,Acu-Link.com,2013-06-05 06:15:00,
2013-06-05 01:30:00,57.2,47.1,29.93,WNW,292,6.3,-999.0,69,-99.99,,,0.00,Acu-Link.com,2013-06-05 06:30:00,
2013-06-05 01:45:00,56.8,46.4,29.93,NW,315,3.2,-999.0,68,-99.99,,,0.00,Acu-Link.com,2013-06-05 06:45:00,
2013-06-05 02:00:00,56.3,46.6,29.93,West,270,4.7,-999.0,70,-99.99,,,0.00,Acu-Link.com,2013-06-05 07:00:00,
2013-06-05 02:16:00,55.8,46.5,29.94,WSW,247,3.7,-999.0,71,-99.99,,,0.00,Acu-Link.com,2013-06-05 07:16:00,
2013-06-05 02:31:00,55.2,46.3,29.94,West,270,1.7,-999.0,72,-99.99,,,0.00,Acu-Link.com,2013-06-05 07:31:00,
2013-06-05 02:46:00,54.1,46.0,29.93,West,270,1.7,-999.0,74,-99.99,,,0.00,Acu-Link.com,2013-06-05 07:46:00,
2013-06-05 03:02:00,54.3,46.5,29.94,West,270,1.1,-999.0,75,-99.99,,,0.00,Acu-Link.com,2013-06-05 08:02:00,
2013-06-05 03:18:00,54.1,46.4,29.93,WNW,292,1.1,-999.0,75,-99.99,,,0.00,Acu-Link.com,2013-06-05 08:18:00,
2013-06-05 03:33:00,54.5,46.4,29.93,WNW,292,3.7,-999.0,74,-99.99,,,0.00,Acu-Link.com,2013-06-05 08:33:00,
2013-06-05 03:48:00,55.4,45.8,29.92,WNW,292,8.3,-999.0,70,-99.99,,,0.00,Acu-Link.com,2013-06-05 08:48:00,
2013-06-05 04:03:00,55.2,45.6,29.92,WNW,292,10.4,-999.0,70,-99.99,,,0.00,Acu-Link.com,2013-06-05 09:03:00,
2013-06-05 04:18:00,54.7,45.5,29.93,West,270,2.7,-999.0,71,-99.99,,,0.00,Acu-Link.com,2013-06-05 09:18:00,
2013-06-05 04:33:00,54.5,45.3,29.94,WSW,247,3.7,-999.0,71,-99.99,,,0.00,Acu-Link.com,2013-06-05 09:33:00,
2013-06-05 04:48:00,54.0,45.2,29.94,West,270,10.9,-999.0,72,-99.99,,,0.00,Acu-Link.com,2013-06-05 09:48:00,
2013-06-05 05:03:00,53.8,45.4,29.92,West,270,6.3,-999.0,73,-99.99,,,0.00,Acu-Link.com,2013-06-05 10:03:00,
2013-06-05 05:19:00,53.6,45.2,29.92,SSW,202,12.5,-999.0,73,-99.99,,,0.00,Acu-Link.com,2013-06-05 10:19:00,
2013-06-05 05:34:00,53.2,45.1,29.93,West,270,8.3,-999.0,74,-99.99,,,0.00,Acu-Link.com,2013-06-05 10:34:00,
2013-06-05 05:49:00,53.1,45.4,29.92,WSW,247,4.2,-999.0,75,-99.99,,,0.00,Acu-Link.com,2013-06-05 10:49:00,
2013-06-05 06:04:00,52.9,45.2,29.92,West,270,14.0,-999.0,75,-99.99,,,0.00,Acu-Link.com,2013-06-05 11:04:00,
2013-06-05 06:19:00,52.9,45.2,29.92,West,270,10.9,-999.0,75,-99.99,,,0.00,Acu-Link.com,2013-06-05 11:19:00,
2013-06-05 06:34:00,53.1,45.7,29.93,WNW,292,8.9,-999.0,76,-99.99,,,0.00,Acu-Link.com,2013-06-05 11:34:00,
2013-06-05 06:49:00,53.6,45.5,29.93,NW,315,6.8,-999.0,74,-99.99,,,0.00,Acu-Link.com,2013-06-05 11:49:00,
2013-06-05 07:04:00,53.8,45.7,29.92,West,270,5.3,-999.0,74,-99.99,,,0.00,Acu-Link.com,2013-06-05 12:04:00,
2013-06-05 07:19:00,54.5,46.0,29.93,West,270,6.8,-999.0,73,-99.99,,,0.00,Acu-Link.com,2013-06-05 12:19:00,
2013-06-05 07:34:00,54.3,45.8,29.92,West,270,8.9,-999.0,73,-99.99,,,0.00,Acu-Link.com,2013-06-05 12:34:00,
2013-06-05 07:49:00,55.0,46.1,29.92,West,270,6.8,-999.0,72,-99.99,,,0.00,Acu-Link.com,2013-06-05 12:49:00,
2013-06-05 08:04:00,55.8,46.2,29.92,WNW,292,7.8,-999.0,70,-99.99,,,0.00,Acu-Link.com,2013-06-05 13:04:00,
2013-06-05 08:19:00,57.0,46.5,29.91,West,270,11.9,-999.0,68,-99.99,,,0.00,Acu-Link.com,2013-06-05 13:19:00,
2013-06-05 08:34:00,57.4,46.9,29.92,WNW,292,6.3,-999.0,68,-99.99,,,0.00,Acu-Link.com,2013-06-05 13:34:00,
2013-06-05 08:50:00,57.6,45.9,29.92,West,270,13.0,-999.0,65,-99.99,,,0.00,Acu-Link.com,2013-06-05 13:50:00,
2013-06-05 09:05:00,56.3,45.5,29.92,WSW,247,10.4,-999.0,67,-99.99,,,0.00,Acu-Link.com,2013-06-05 14:05:00,
2013-06-05 09:20:00,57.9,46.6,29.93,WNW,292,12.5,-999.0,66,-99.99,,,0.00,Acu-Link.com,2013-06-05 14:20:00,
2013-06-05 09:35:00,57.6,45.9,29.93,WNW,292,3.2,-999.0,65,-99.99,,,0.00,Acu-Link.com,2013-06-05 14:35:00,
2013-06-05 09:50:00,57.0,45.8,29.93,West,270,6.3,-999.0,66,-99.99,,,0.00,Acu-Link.com,2013-06-05 14:50:00,
2013-06-05 10:05:00,57.6,45.9,29.93,WNW,292,11.9,-999.0,65,-99.99,,,0.00,Acu-Link.com,2013-06-05 15:05:00,
2013-06-05 10:20:00,57.2,45.5,29.92,WNW,292,10.9,-999.0,65,-99.99,,,0.00,Acu-Link.com,2013-06-05 15:20:00,
2013-06-05 10:35:00,57.7,46.0,29.92,West,270,12.5,-999.0,65,-99.99,,,0.00,Acu-Link.com,2013-06-05 15:35:00,
2013-06-05 10:51:00,57.9,45.8,29.92,West,270,9.9,-999.0,64,-99.99,,,0.00,Acu-Link.com,2013-06-05 15:51:00,
2013-06-05 11:06:00,57.4,46.1,29.93,WNW,292,7.8,-999.0,66,-99.99,,,0.00,Acu-Link.com,2013-06-05 16:06:00,
2013-06-05 11:21:00,57.2,46.3,29.93,West,270,7.8,-999.0,67,-99.99,,,0.00,Acu-Link.com,2013-06-05 16:21:00,
2013-06-05 11:37:00,57.0,45.8,29.93,WNW,292,9.4,-999.0,66,-99.99,,,0.00,Acu-Link.com,2013-06-05 16:37:00,
2013-06-05 11:52:00,57.2,45.9,29.94,West,270,6.3,-999.0,66,-99.99,,,0.00,Acu-Link.com,2013-06-05 16:52:00,
2013-06-05 12:07:00,58.3,45.8,29.93,West,270,4.2,-999.0,63,-99.99,,,0.00,Acu-Link.com,2013-06-05 17:07:00,
2013-06-05 12:22:00,58.3,47.0,29.93,North,0,6.3,-999.0,66,-99.99,,,0.00,Acu-Link.com,2013-06-05 17:22:00,
2013-06-05 12:38:00,59.4,46.8,29.93,WSW,247,5.3,-999.0,63,-99.99,,,0.00,Acu-Link.com,2013-06-05 17:38:00,
2013-06-05 12:53:00,58.6,46.9,29.93,West,270,10.4,-999.0,65,-99.99,,,0.00,Acu-Link.com,2013-06-05 17:53:00,
2013-06-05 13:08:00,59.0,47.7,29.93,NNW,337,8.9,-999.0,66,-99.99,,,0.00,Acu-Link.com,2013-06-05 18:08:00,
2013-06-05 13:23:00,59.2,47.4,29.93,WNW,292,10.9,-999.0,65,-99.99,,,0.00,Acu-Link.com,2013-06-05 18:23:00,
2013-06-05 13:38:00,60.4,47.7,29.93,WNW,292,3.2,-999.0,63,-99.99,,,0.00,Acu-Link.com,2013-06-05 18:38:00,
2013-06-05 13:53:00,60.3,47.7,29.92,West,270,5.3,-999.0,63,-99.99,,,0.00,Acu-Link.com,2013-06-05 18:53:00,
2013-06-05 14:09:00,61.0,48.3,29.92,NW,315,6.8,-999.0,63,-99.99,,,0.00,Acu-Link.com,2013-06-05 19:09:00,
2013-06-05 14:24:00,60.8,48.1,29.91,SW,225,5.8,-999.0,63,-99.99,,,0.00,Acu-Link.com,2013-06-05 19:24:00,
2013-06-05 14:39:00,61.3,48.6,29.91,West,270,5.3,-999.0,63,-99.99,,,0.00,Acu-Link.com,2013-06-05 19:39:00,
2013-06-05 14:54:00,63.5,48.5,29.91,NNW,337,8.3,-999.0,58,-99.99,,,0.00,Acu-Link.com,2013-06-05 19:54:00,
2013-06-05 15:09:00,63.1,49.0,29.90,West,270,9.4,-999.0,60,-99.99,,,0.00,Acu-Link.com,2013-06-05 20:09:00,
2013-06-05 15:24:00,63.7,48.6,29.89,West,270,6.8,-999.0,58,-99.99,,,0.00,Acu-Link.com,2013-06-05 20:24:00,
2013-06-05 15:39:00,63.9,48.8,29.89,SW,225,6.8,-999.0,58,-99.99,,,0.00,Acu-Link.com,2013-06-05 20:39:00,
2013-06-05 15:54:00,63.1,48.5,29.89,West,270,6.3,-999.0,59,-99.99,,,0.00,Acu-Link.com,2013-06-05 20:54:00,
2013-06-05 16:09:00,63.7,49.6,29.89,South,180,4.2,-999.0,60,-99.99,,,0.00,Acu-Link.com,2013-06-05 21:09:00,
2013-06-05 16:24:00,63.3,48.7,29.88,West,270,7.3,-999.0,59,-99.99,,,0.00,Acu-Link.com,2013-06-05 21:24:00,
2013-06-05 16:40:00,64.2,49.6,29.89,West,270,7.3,-999.0,59,-99.99,,,0.00,Acu-Link.com,2013-06-05 21:40:00,
2013-06-05 16:55:00,63.7,49.1,29.88,West,270,8.3,-999.0,59,-99.99,,,0.00,Acu-Link.com,2013-06-05 21:55:00,
2013-06-05 17:10:00,64.0,49.4,29.88,SW,225,8.9,-999.0,59,-99.99,,,0.00,Acu-Link.com,2013-06-05 22:10:00,
2013-06-05 17:25:00,63.7,49.1,29.89,WSW,247,5.8,-999.0,59,-99.99,,,0.00,Acu-Link.com,2013-06-05 22:25:00,
2013-06-05 17:40:00,64.2,49.1,29.88,SSW,202,6.8,-999.0,58,-99.99,,,0.00,Acu-Link.com,2013-06-05 22:40:00,
2013-06-05 17:55:00,63.7,49.1,29.88,SW,225,5.8,-999.0,59,-99.99,,,0.00,Acu-Link.com,2013-06-05 22:55:00,
2013-06-05 18:41:00,63.3,49.2,29.88,WNW,292,8.3,-999.0,60,-99.99,,,0.00,Acu-Link.com,2013-06-05 23:41:00,
2013-06-05 19:12:00,63.5,50.2,29.87,West,270,5.8,-999.0,62,-99.99,,,0.00,Acu-Link.com,2013-06-06 00:12:00,
2013-06-05 19:27:00,64.8,51.0,29.88,West,270,8.9,-999.0,61,-99.99,,,0.00,Acu-Link.com,2013-06-06 00:27:00,
2013-06-05 19:42:00,63.1,50.3,29.88,WNW,292,7.3,-999.0,63,-99.99,,,0.00,Acu-Link.com,2013-06-06 00:42:00,
2013-06-05 19:57:00,61.7,50.6,29.87,SW,225,3.7,-999.0,67,-99.99,,,0.00,Acu-Link.com,2013-06-06 00:57:00,
2013-06-05 20:12:00,61.2,50.6,29.88,West,270,4.2,-999.0,68,-99.99,,,0.00,Acu-Link.com,2013-06-06 01:12:00,
2013-06-05 20:27:00,60.8,50.6,29.87,West,270,5.3,-999.0,69,-99.99,,,0.00,Acu-Link.com,2013-06-06 01:27:00,
2013-06-05 20:42:00,60.4,51.0,29.88,SW,225,4.7,-999.0,71,-99.99,,,0.00,Acu-Link.com,2013-06-06 01:42:00,
2013-06-05 20:57:00,60.3,50.9,29.87,WNW,292,3.7,-999.0,71,-99.99,,,0.00,Acu-Link.com,2013-06-06 01:57:00,
2013-06-05 21:12:00,59.9,50.8,29.88,West,270,3.7,-999.0,72,-99.99,,,0.00,Acu-Link.com,2013-06-06 02:12:00,
2013-06-05 21:27:00,59.7,51.0,29.88,West,270,4.2,-999.0,73,-99.99,,,0.00,Acu-Link.com,2013-06-06 02:27:00,
2013-06-05 21:42:00,59.7,51.0,29.88,West,270,3.7,-999.0,73,-99.99,,,0.00,Acu-Link.com,2013-06-06 02:42:00,
2013-06-05 21:58:00,59.5,51.2,29.89,West,270,2.2,-999.0,74,-99.99,,,0.00,Acu-Link.com,2013-06-06 02:58:00,
2013-06-05 22:13:00,59.5,51.6,29.89,WNW,292,4.2,-999.0,75,-99.99,,,0.00,Acu-Link.com,2013-06-06 03:13:00,
2013-06-05 22:28:00,59.5,51.9,29.89,West,270,4.2,-999.0,76,-99.99,,,0.00,Acu-Link.com,2013-06-06 03:28:00,
2013-06-05 22:43:00,59.7,52.1,29.89,West,270,3.7,-999.0,76,-99.99,,,0.00,Acu-Link.com,2013-06-06 03:43:00,
2013-06-05 22:59:00,59.7,52.5,29.90,West,270,3.7,-999.0,77,-99.99,,,0.00,Acu-Link.com,2013-06-06 03:59:00,
2013-06-05 23:14:00,59.7,52.8,29.89,WNW,292,3.7,-999.0,78,-99.99,,,0.00,Acu-Link.com,2013-06-06 04:14:00,
2013-06-05 23:29:00,59.4,52.9,29.90,West,270,3.7,-999.0,79,-99.99,,,0.00,Acu-Link.com,2013-06-06 04:29:00,
2013-06-05 23:45:00,59.2,52.7,29.90,WNW,292,4.7,-999.0,79,-99.99,,,0.00,Acu-Link.com,2013-06-06 04:45:00,